createdAt,value
2023-01-02T00:04:40.989Z,13.44
2023-01-02T00:09:32.714Z,12.73
2023-01-02T00:14:24.269Z,12.61
2023-01-02T00:19:15.862Z,13.51
2023-01-02T00:24:07.800Z,13.10
2023-01-02T00:29:01.216Z,13.34
2023-01-02T00:33:52.919Z,13.14
2023-01-02T00:38:45.179Z,13.56
2023-01-02T00:43:37.296Z,13.37
2023-01-02T00:48:28.823Z,13.28
2023-01-02T00:53:20.457Z,13.28
2023-01-02T00:58:12.969Z,13.23
2023-01-02T01:03:04.905Z,13.50
2023-01-02T01:07:57.381Z,13.62
2023-01-02T01:12:49.216Z,13.64
2023-01-02T01:17:40.836Z,13.61
2023-01-02T01:22:32.454Z,13.64
2023-01-02T01:27:24.132Z,12.83
2023-01-02T01:32:15.707Z,13.63
2023-01-02T01:37:07.298Z,13.65
2023-01-02T01:42:00.312Z,13.03
2023-01-02T01:46:51.891Z,13.44
2023-01-02T01:51:49.659Z,13.36
2023-01-02T01:56:52.073Z,13.67
2023-01-02T02:01:44.441Z,13.06
2023-01-02T02:06:38.894Z,13.77
2023-01-02T02:11:30.870Z,13.46
2023-01-02T02:16:34.287Z,13.59
2023-01-02T02:21:38.060Z,13.87
2023-01-02T02:27:08.142Z,13.86
2023-01-02T02:32:20.603Z,13.50
2023-01-02T02:37:17.995Z,13.53
2023-01-02T02:42:48.331Z,13.70
2023-01-02T02:47:52.015Z,13.33
2023-01-02T02:52:48.868Z,13.63
2023-01-02T02:57:42.791Z,13.59
2023-01-02T03:02:34.961Z,12.77
2023-01-02T03:07:39.745Z,13.57
2023-01-02T03:12:43.758Z,13.26
2023-01-02T03:17:50.349Z,13.51
2023-01-02T03:22:49.364Z,12.96
2023-01-02T03:27:46.488Z,13.44
2023-01-02T03:32:43.747Z,12.91
2023-01-02T03:37:41.078Z,13.48
2023-01-02T03:42:37.391Z,11.83
2023-01-02T03:47:53.878Z,13.49
2023-01-02T03:52:45.586Z,13.49
2023-01-02T03:57:59.891Z,13.38
2023-01-02T04:03:10.839Z,13.55
2023-01-02T04:08:10.496Z,13.27
2023-01-02T04:13:09.886Z,13.41
2023-01-02T04:18:08.452Z,13.53
2023-01-02T04:23:11.848Z,13.40
2023-01-02T04:28:26.845Z,13.52
2023-01-02T04:33:22.139Z,13.38
2023-01-02T04:38:13.757Z,13.52
2023-01-02T04:43:12.303Z,13.53
2023-01-02T04:48:04.190Z,13.25
2023-01-02T04:52:55.880Z,13.59
2023-01-02T04:57:47.502Z,13.59
2023-01-02T05:02:39.845Z,13.57
2023-01-02T05:07:33.532Z,13.35
2023-01-02T05:12:25.206Z,13.57
2023-01-02T05:17:17.032Z,13.52
2023-01-02T05:22:30.404Z,13.56
2023-01-02T05:27:22.058Z,13.58
2023-01-02T05:32:13.719Z,13.22
2023-01-02T05:37:05.284Z,13.59
2023-01-02T05:41:56.924Z,13.03
2023-01-02T05:46:48.586Z,13.59
2023-01-02T05:51:40.221Z,13.32
2023-01-02T05:56:31.958Z,13.69
2023-01-02T06:01:27.238Z,12.77
2023-01-02T06:06:21.245Z,13.71
2023-01-02T06:11:12.930Z,13.47
2023-01-02T06:16:06.812Z,13.66
2023-01-02T06:21:03.727Z,13.72
2023-01-02T06:25:55.415Z,13.72
2023-01-02T06:30:47.040Z,13.73
2023-01-02T06:35:38.861Z,13.45
2023-01-02T06:40:30.708Z,13.49
2023-01-02T06:45:23.598Z,13.27
2023-01-02T06:50:15.301Z,13.73
2023-01-02T06:55:07.266Z,13.04
2023-01-02T06:59:58.924Z,13.50
2023-01-02T07:04:50.487Z,13.33
2023-01-02T07:09:42.023Z,13.38
2023-01-02T07:14:33.595Z,13.52
2023-01-02T07:19:25.537Z,13.48
2023-01-02T07:24:17.126Z,13.50
2023-01-02T07:29:08.851Z,13.46
2023-01-02T07:34:00.500Z,13.46
2023-01-02T07:38:53.101Z,13.23
2023-01-02T07:43:46.172Z,13.31
2023-01-02T07:48:37.788Z,13.16
2023-01-02T15:56:15.242Z,10.32
2023-01-02T16:01:21.739Z,10.36
2023-01-02T16:06:37.098Z,10.35
2023-01-02T16:11:29.799Z,10.41
2023-01-02T16:16:22.549Z,9.96
2023-01-02T16:21:15.815Z,10.28
2023-01-02T16:26:12.188Z,9.94
2023-01-02T16:31:13.396Z,9.98
2023-01-02T16:36:04.923Z,10.20
2023-01-02T16:41:12.397Z,9.18
2023-01-02T16:46:04.411Z,9.12
2023-01-02T16:50:58.327Z,9.43
2023-01-02T16:55:51.768Z,9.63
2023-01-02T17:00:43.956Z,8.88
2023-01-02T17:05:39.605Z,9.75
2023-01-02T17:10:31.540Z,9.96
2023-01-02T17:15:23.215Z,9.92
2023-01-02T17:20:15.761Z,9.68
2023-01-02T17:25:11.008Z,9.88
2023-01-02T17:30:03.214Z,9.32
2023-01-02T17:34:55.276Z,9.40
2023-01-02T17:39:47.697Z,10.00
2023-01-02T17:44:39.255Z,9.58
2023-01-02T17:49:30.884Z,9.70
2023-01-02T17:54:23.861Z,9.51
2023-01-02T17:59:19.172Z,9.99
2023-01-02T18:04:10.958Z,9.98
2023-01-02T18:09:03.699Z,10.07
2023-01-02T18:13:56.541Z,9.36
2023-01-02T18:18:49.515Z,8.94
2023-01-02T18:23:41.919Z,9.73
2023-01-02T18:28:33.513Z,9.33
2023-01-02T18:33:27.588Z,9.11
2023-01-02T18:38:36.218Z,9.15
2023-01-02T18:43:32.189Z,9.71
2023-01-02T18:48:23.799Z,9.43
2023-01-02T18:53:21.400Z,9.00
2023-01-02T18:58:40.816Z,9.70
2023-01-02T19:03:33.907Z,9.18
2023-01-02T19:08:37.809Z,9.19
2023-01-02T19:13:34.478Z,9.14
2023-01-02T19:18:45.114Z,8.77
2023-01-02T19:23:52.694Z,9.07
2023-01-02T19:28:59.900Z,8.81
2023-01-02T19:34:01.767Z,8.02
2023-01-02T19:38:53.433Z,8.99
2023-01-02T19:43:45.091Z,9.15
2023-01-02T19:48:37.308Z,8.91
2023-01-02T19:53:28.942Z,8.92
2023-01-02T19:58:20.629Z,8.11
2023-01-02T20:03:12.321Z,8.70
2023-01-02T20:08:03.951Z,8.41
2023-01-02T20:12:55.681Z,8.40
2023-01-02T20:17:47.688Z,7.41
2023-01-02T20:22:41.284Z,7.75
2023-01-02T20:27:33.040Z,7.82
2023-01-02T20:32:26.061Z,7.90
2023-01-02T20:37:21.054Z,7.95
2023-01-02T20:42:13.763Z,7.15
2023-01-02T20:47:05.734Z,7.25
2023-01-02T20:51:57.885Z,8.15
2023-01-02T20:56:49.782Z,7.71
2023-01-02T21:01:42.544Z,8.17
2023-01-02T21:06:34.421Z,7.69
2023-01-02T21:11:26.795Z,7.77
2023-01-02T21:16:18.732Z,7.99
2023-01-02T21:21:18.380Z,8.48
2023-01-02T21:26:12.395Z,8.63
2023-01-02T21:31:05.021Z,8.59
2023-01-02T21:35:59.130Z,8.61
2023-01-02T21:40:52.307Z,8.39
2023-01-02T21:45:43.938Z,8.63
2023-01-02T21:50:36.372Z,8.03
2023-01-02T21:55:28.221Z,7.95
2023-01-02T22:00:26.159Z,8.10
2023-01-02T22:05:18.853Z,8.14
2023-01-02T22:10:12.032Z,7.70
2023-01-02T22:15:05.689Z,8.02
2023-01-02T22:19:57.472Z,7.99
2023-01-02T22:24:51.057Z,7.97
2023-01-02T22:30:19.599Z,7.83
2023-01-02T22:34:56.436Z,7.51
2023-01-02T22:39:48.639Z,7.98
2023-01-02T22:44:40.849Z,7.66
2023-01-02T22:49:38.179Z,7.04
2023-01-02T22:54:29.831Z,7.26
2023-01-02T22:59:21.454Z,7.88
2023-01-02T23:04:20.641Z,7.89
2023-01-02T23:09:12.710Z,7.85
2023-01-02T23:14:04.837Z,7.62
2023-01-02T23:19:14.576Z,7.39
2023-01-02T23:24:07.124Z,7.39
2023-01-02T23:29:07.443Z,7.41
2023-01-02T23:34:00.796Z,7.65
2023-01-02T23:38:52.484Z,8.04
2023-01-02T23:43:45.035Z,8.13
2023-01-02T23:48:36.564Z,8.00
2023-01-02T23:53:28.735Z,7.60
2023-01-02T23:58:21.361Z,7.84
